TimeEDT,TemperatureF,Dew PointF,Humidity,Sea Level PressureIn,VisibilityMPH,Wind Direction,Wind SpeedMPH,Gust SpeedMPH,PrecipitationIn,Events,Conditions,WindDirDegrees,DateUTC
12:53 AM,70.0,57.9,65,30.16,10.0,ESE,4.6,-,N/A,,Scattered Clouds,120,2013-06-21 04:53:00
1:53 AM,69.1,57.0,65,30.15,10.0,SE,4.6,-,N/A,,Partly Cloudy,140,2013-06-21 05:53:00
2:53 AM,70.0,57.9,65,30.14,10.0,Calm,Calm,-,N/A,,Mostly Cloudy,0,2013-06-21 06:53:00
3:53 AM,69.1,57.9,68,30.13,10.0,SSE,3.5,-,N/A,,Scattered Clouds,150,2013-06-21 07:53:00
4:53 AM,68.0,59.0,73,30.12,10.0,SE,3.5,-,N/A,,Clear,140,2013-06-21 08:53:00
5:53 AM,66.9,60.1,79,30.12,10.0,SSE,6.9,-,N/A,,Clear,150,2013-06-21 09:53:00
6:53 AM,68.0,61.0,78,30.12,9.0,SSE,5.8,-,N/A,,Clear,150,2013-06-21 10:53:00
7:53 AM,72.0,63.0,73,30.14,10.0,SE,5.8,-,N/A,,Clear,140,2013-06-21 11:53:00
8:53 AM,75.0,64.0,69,30.11,10.0,South,9.2,-,N/A,,Clear,170,2013-06-21 12:53:00
9:53 AM,81.0,64.0,56,30.12,10.0,South,10.4,-,N/A,,Clear,180,2013-06-21 13:53:00
10:53 AM,84.0,62.1,47,30.13,10.0,SSW,12.7,19.6,N/A,,Clear,200,2013-06-21 14:53:00
11:53 AM,84.9,62.1,46,30.12,10.0,SSW,15.0,23.0,N/A,,Clear,210,2013-06-21 15:53:00
12:53 PM,84.9,61.0,44,30.12,10.0,South,12.7,-,N/A,,Clear,190,2013-06-21 16:53:00
1:53 PM,84.0,62.1,47,30.14,10.0,SW,10.4,-,N/A,,Scattered Clouds,220,2013-06-21 17:53:00
2:53 PM,84.0,64.0,51,30.12,10.0,SSW,10.4,-,N/A,,Scattered Clouds,210,2013-06-21 18:53:00
3:53 PM,81.0,64.9,58,30.03,10.0,South,15.0,23.0,N/A,,Mostly Cloudy,190,2013-06-21 19:53:00
4:53 PM,79.0,64.9,62,29.96,10.0,South,18.4,27.6,N/A,,Clear,170,2013-06-21 20:53:00
5:53 PM,80.1,63.0,56,30.01,10.0,South,12.7,-,N/A,,Partly Cloudy,190,2013-06-21 21:53:00
6:53 PM,80.1,64.0,58,30.01,10.0,South,9.2,18.4,N/A,,Clear,170,2013-06-21 22:53:00
7:53 PM,79.0,64.9,62,30.03,10.0,South,9.2,-,N/A,,Clear,190,2013-06-21 23:53:00
8:53 PM,77.0,64.0,64,30.03,10.0,South,5.8,-,N/A,,Clear,190,2013-06-22 00:53:00
9:53 PM,73.9,64.0,71,30.04,10.0,WSW,8.1,-,N/A,,Clear,240,2013-06-22 01:53:00
10:53 PM,72.0,64.9,78,30.08,10.0,WSW,8.1,-,N/A,,Clear,250,2013-06-22 02:53:00
11:53 PM,72.0,64.0,76,30.07,10.0,WSW,5.8,-,N/A,,Partly Cloudy,240,2013-06-22 03:53:00